Details for United Airlines at KDEN




Go Back


Latest METAR
Local Time

KDEN 180553Z 16018G25KT 10SM FEW160 18/13 A3026 RMK AO2 PK WND 15030/0455 SLP169 T01780128 10278 20178 50004
18/08/2018, 00:27:05

Description
Results
United Airlines Logo
Number of Pilots based at KDEN
1 Pilots Based here
Number of United Airlines Flights Departed from KDEN
8 Flights Departed
Number of United Airlines Flights Arrived at KDEN
8 Flights Arrived
Number of United Airlines Schedules Departing from KDEN
496 Schedules
Number of United Airlines Schedules Arriving at KDEN
558 Schedules
Number of United Airlines Schedules Departing from KDEN availible today
282 Schedules Today
Number of United Airlines Schedules Arriving at KDEN availible today
307 Schedules Today
Average Landing Rate at KDEN
-228 fpm
United Airlines Average Landing Rate at KDEN
-248 fpm
Total Fuel Purchased at KDEN by United Airlines
25,578.53 kgs / 56,390.43 lbs

Pilots Based at KDEN


Pilot ID
Pilot Name
Pilot Rank
No. of Flights
No. of Flying Hours
Stravis Ly
15
30.42
Content